Flight Track Log - Related Links

Times and Time Zones

All times are in EDT time to prevent confusion due to time zone crossing. See the SWA385 flight status page for this flight to view local times or setup timezone preferences in your user account.


Time Position Orientation Groundspeed Altitude Reporting Facility
EDT Latitude Longitude Course Direction KTS MPH feet Rate Location/Type
Wed 05:16:26 PM 38.9167 -77.4333 180° South 168 193 1,300  Level Potomac TRACON
Wed 05:17:26 PM 38.8667 -77.4333 180° South 214 246 3,700 2,699 Climbing Potomac TRACON
Wed 05:19:55 PM 38.7728 -77.6472 241° Southwest 274 315 10,700 2,727 Climbing Washington Center
Wed 05:20:55 PM 38.7708 -77.7644 269° West 314 361 13,200 2,777 Climbing Washington Center
Wed 05:21:56 PM 38.7936 -77.8875 283° West 329 379 16,300 2,579 Climbing Washington Center
Wed 05:22:56 PM 38.8144 -77.9894 285° West 341 392 18,400 2,150 Climbing Washington Center
Wed 05:23:56 PM 38.8386 -78.1314 282° West 363 418 20,600 2,132 Climbing Washington Center
Wed 05:24:57 PM 38.8544 -78.2706 278° West 379 436 22,700 2,118 Climbing Washington Center
Wed 05:25:55 PM 38.8531 -78.4144 269° West 396 456 24,800 1,983 Climbing Washington Center
Wed 05:26:55 PM 38.8497 -78.5611 268° West 408 470 26,600 1,574 Climbing Washington Center
Wed 05:27:57 PM 38.8478 -78.7131 269° West 415 478 28,000 1,377 Climbing Washington Center
Wed 05:28:57 PM 38.8458 -78.8675 269° West 429 494 29,400 1,475 Climbing Washington Center
Wed 05:29:55 PM 38.8456 -79.0275 270° West 440 506 30,900 1,563 Climbing Washington Center
Wed 05:30:56 PM 38.8389 -79.1842 267° West 440 506 32,500 1,574 Climbing Washington Center
Wed 05:31:57 PM 38.8383 -79.3417 270° West 440 506 34,100 1,613 Climbing Washington Center
Wed 05:32:55 PM 38.8356 -79.4961 269° West 440 506 35,700 1,664 Climbing Washington Center
Wed 05:33:56 PM 38.8339 -79.6692 269° West 440 506 37,400 1,180 Climbing Washington Center
Wed 05:34:57 PM 38.8314 -79.8050 269° West 439 505 38,100 420 Climbing Washington Center
Wed 05:35:36 PM 38.8244 -79.9136 265° West 416 479 38,100  Level Indianapolis Center
Wed 05:36:37 PM 38.8203 -80.0614 268° West 415 478 38,100  Level Indianapolis Center
Wed 05:37:38 PM 38.8172 -80.2097 269° West 416 479 38,100  Level Indianapolis Center
Wed 05:38:39 PM 38.7997 -80.3564 261° West 420 483 38,100  Level Indianapolis Center
Wed 05:39:41 PM 38.7667 -80.5031 254° West 426 490 38,100  Level Indianapolis Center
Wed 05:40:42 PM 38.7339 -80.6481 254° West 425 489 38,100  Level Indianapolis Center
Wed 05:41:43 PM 38.6975 -80.7928 252° West 427 491 38,100  Level Indianapolis Center
Wed 05:42:45 PM 38.6633 -80.9367 253° West 422 486 38,100  Level Indianapolis Center
Wed 05:43:46 PM 38.6294 -81.0797 253° West 419 482 38,100  Level Indianapolis Center
Wed 05:44:47 PM 38.5972 -81.2214 254° West 415 478 38,100  Level Indianapolis Center
Wed 05:45:49 PM 38.5606 -81.3911 255° West 414 476 38,100  Level Indianapolis Center
Wed 05:46:50 PM 38.5339 -81.5133 254° West 423 487 38,100  Level Indianapolis Center
Wed 05:47:52 PM 38.5058 -81.6606 256° West 420 483 38,100  Level Indianapolis Center
Wed 05:48:53 PM 38.4753 -81.8067 255° West 422 486 38,100  Level Indianapolis Center
Wed 05:49:54 PM 38.4386 -81.9800 255° West 421 484 38,100  Level Indianapolis Center
Wed 05:50:56 PM 38.3908 -82.1167 246° West 422 486 38,100  Level Indianapolis Center
Wed 05:51:57 PM 38.3461 -82.2528 247° West 418 481 38,100  Level Indianapolis Center
Wed 05:52:59 PM 38.3217 -82.3992 258° West 421 484 38,100  Level Indianapolis Center
Wed 05:54:00 PM 38.2911 -82.5558 256° West 420 483 38,100  Level Indianapolis Center
Wed 05:55:02 PM 38.2636 -82.7008 256° West 422 486 38,100  Level Indianapolis Center
Wed 05:57:04 PM 38.2114 -82.9858 257° West 415 478 38,100  Level Indianapolis Center
Wed 05:58:06 PM 38.1858 -83.1297 257° West 416 479 38,100  Level Indianapolis Center
Wed 05:59:07 PM 38.1606 -83.2739 257° West 419 482 38,100  Level Indianapolis Center
Wed 06:00:09 PM 38.1378 -83.4192 259° West 420 483 38,100  Level Indianapolis Center
Wed 06:01:10 PM 38.1114 -83.5906 259° West 424 488 38,100  Level Indianapolis Center
Wed 06:02:11 PM 38.0889 -83.7369 259° West 424 488 38,100  Level Indianapolis Center
Wed 06:03:13 PM 38.0992 -83.8853 275° West 424 488 38,100 -49 Level Indianapolis Center
Wed 06:04:14 PM 38.1119 -84.0367 276° West 430 495 38,000  Descending Indianapolis Center
Wed 06:05:16 PM 38.1244 -84.1908 276° West 438 504 38,100 49 Climbing Indianapolis Center
Wed 06:06:17 PM 38.1358 -84.3469 275° West 442 509 38,100  Level Indianapolis Center
Wed 06:07:18 PM 38.1481 -84.5019 276° West 442 509 38,100  Level Indianapolis Center
Wed 06:08:20 PM 38.1600 -84.6553 276° West 438 504 38,100  Level Indianapolis Center
Wed 06:09:21 PM 38.1744 -84.8336 276° West 434 499 38,100  Level Indianapolis Center
Wed 06:10:23 PM 38.2475 -84.9553 307° West 452 520 38,100  Level Indianapolis Center
Wed 06:11:24 PM 38.3681 -85.0169 338° Northwest 462 532 38,100 -787 Level Indianapolis Center
Wed 06:12:25 PM 38.4894 -85.0725 340° North 463 533 36,500 -1,463 Descending Indianapolis Center
Wed 06:13:27 PM 38.6119 -85.1297 340° North 467 537 35,100 -683 Descending Indianapolis Center
Wed 06:14:28 PM 38.7300 -85.1864 339° North 471 542 35,100 -49 Level Indianapolis Center
Wed 06:15:29 PM 38.8519 -85.2439 340° North 472 543 35,000 -49 Descending Indianapolis Center
Wed 06:16:31 PM 38.9747 -85.3014 340° North 470 541 35,000 -244 Level Indianapolis Center
Wed 06:17:32 PM 39.1211 -85.3719 340° North 470 541 34,500 -683 Descending Indianapolis Center
Wed 06:18:34 PM 39.2400 -85.4275 340° North 461 531 33,600 -1,122 Descending Indianapolis Center
Wed 06:19:35 PM 39.3525 -85.4831 339° North 442 509 32,200 -1,426 Descending Indianapolis Center
Wed 06:20:36 PM 39.4642 -85.5364 340° North 433 498 30,700 -1,220 Descending Indianapolis Center
Wed 06:21:38 PM 39.5722 -85.5883 340° North 421 484 29,700 -927 Descending Indianapolis Center
Wed 06:22:39 PM 39.6878 -85.6442 340° North 439 505 28,800 -934 Descending Indianapolis Center
Wed 06:23:40 PM 39.8036 -85.6997 340° North 448 516 27,800 -1,220 Descending Indianapolis Center
Wed 06:24:42 PM 39.9364 -85.7650 339° North 433 498 26,300 -1,756 Descending Indianapolis Center
Wed 06:25:43 PM 40.0419 -85.8169 339° North 415 478 24,200 -1,131 Descending Indianapolis Center
Wed 06:26:44 PM 40.1472 -85.8689 339° North 410 472 24,000 -119 Descending Indianapolis Center
Wed 06:27:24 PM 40.2142 -85.8997 341° North 424 488 24,000 -294 Level Chicago Center
Wed 06:28:26 PM 40.3256 -85.9633 336° Northwest 437 503 23,500 -823 Descending Chicago Center
Wed 06:29:28 PM 40.4522 -86.0450 334° Northwest 427 491 22,300 -726 Descending Chicago Center
Wed 06:30:30 PM 40.5558 -86.1117 334° Northwest 420 483 22,000 -871 Descending Chicago Center
Wed 06:31:32 PM 40.6578 -86.1783 334° Northwest 413 475 20,500 -1,935 Descending Chicago Center
Wed 06:32:34 PM 40.7586 -86.2433 334° Northwest 386 444 18,000 -2,323 Descending Chicago Center
Wed 06:33:36 PM 40.8497 -86.3042 333° Northwest 368 423 15,700 -2,177 Descending Chicago Center
Wed 06:34:38 PM 40.9375 -86.3600 334° Northwest 353 406 13,500 -2,016 Descending Chicago Center
Wed 06:35:41 PM 41.0231 -86.4175 333° Northwest 346 398 11,500 -1,248 Descending Chicago Center
Wed 06:36:43 PM 41.0892 -86.4964 318° Northwest 328 377 10,900 -726 Descending Chicago Center
Wed 06:37:45 PM 41.1558 -86.5989 311° West 310 357 10,000 -439 Descending Chicago Center
Wed 06:38:46 PM 41.2028 -86.6697 311° West 266 306 10,000  Level Chicago Center
Wed 06:39:48 PM 41.2497 -86.7406 311° West 260 299 10,000  Level Chicago Center
Wed 06:40:50 PM 41.2944 -86.8122 310° West 257 296 10,000  Level Chicago Center
Wed 06:41:52 PM 41.3494 -86.8992 310° West 257 296 10,000 -290 Level Chicago Center
Wed 06:42:54 PM 41.3969 -86.9717 311° West 261 300 9,400 -919 Descending Chicago Center
Wed 06:43:56 PM 41.4408 -87.0433 309° West 255 293 8,100 -1,452 Descending Chicago Center
Wed 06:44:58 PM 41.4878 -87.1156 311° West 257 296 6,400 -1,016 Descending Chicago Center
Wed 06:46:00 PM 41.5203 -87.1986 298° West 261 300 6,000 -192 Descending Chicago Center
Wed 06:47:03 PM 41.5142 -87.3103 266° West 256 295 6,000 -576 Level Chicago Center
Wed 06:48:05 PM 41.5294 -87.4008 283° West 256 295 4,800 -968 Descending Chicago Center
Wed 06:49:07 PM 41.5481 -87.4914 285° West 255 293 4,000 -387 Descending Chicago Center
Wed 06:50:09 PM 41.5656 -87.5814 285° West 254 292 4,000 -387 Level Chicago Center
Wed 06:51:11 PM 41.5792 -87.6739 281° West 256 295 3,200 -726 Descending Chicago Center
Wed 06:52:13 PM 41.5914 -87.7856 278° West 257 296 2,500 -339 Descending Chicago Center
Wed 06:53:15 PM 41.6269 -87.8511 306° West 233 268 2,500  Level Chicago Center
Wed 06:54:17 PM 41.6817 -87.8511 360° North 221 254 2,500 -290 Level Chicago Center
Wed 06:55:19 PM 41.7319 -87.8219 23° Northeast 216 249 1,900 -629 Descending Chicago Center
Wed 06:56:21 PM 41.7614 -87.7833 44° Northeast 172 198 1,200 -435 Descending Chicago Center
Wed 06:57:23 PM 41.7925 -87.7431 44° Northeast 159 183 1,000 -194 Descending Chicago Center

Login

Don't have an account? Register now (free) for customized features, flight alerts, and more!